Arroyo, PR (00714)

10:16 AM AST on October 02, 2014 (GMT -0400)
Casco Urbano Guayama | Change Station
CLOSE
Current Station
Personal Weather Station
Location: Guayama, GUAYAMA
Elevation: 233 ft
Nearby Weather Stations

Elev 233 ft 17.98 °N, 66.11 °W | Updated 33 minutes ago

Partly Cloudy
Partly Cloudy
86.8 °F
Feels Like 98 °F
N
8.0
Wind Variable Wind from East
Gusts 15.0 mph

Today
High -- | Low -- °F
--% Chance of Precip.
Yesterday
High -- | Low -- °F
Precip. -- in
6:14 AM 6:12 PM
First Quarter, 59% visible
Pressure 30.05 in
Visibility 10.0 miles
Clouds Few 3300 ft
Heat Index 98 °F
Dew Point 77 °F
Humidity 72%
Rainfall -999.00 in
Snow Depth Not available.
UV 7 out of 12
Pollen Not available.
Air Quality Not available.
Flu Activity Not available.
METAR TJSJ 021356Z 10008KT 10SM FEW033 32/25 A3005 RMK AO2 SLP175 T03170250

More Conditions Fewer Conditions

Pressure 30.05 in
Visibility 10.0 miles
Clouds Few 3300 ft
Heat Index 98 °F
Dew Point 77 °F
Humidity 72%
Rainfall -999.00 in
Snow Depth Not available.
UV 7 out of 12
Pollen Not available.
Air Quality Not available.
Flu Activity Not available.
METAR TJSJ 021356Z 10008KT 10SM FEW033 32/25 A3005 RMK AO2 SLP175 T03170250

More Conditions Fewer Conditions

10-Day Weather Forecast

Almanac

Astronomy

Oct. 02, 2014 Rise Set
Actual Time 6:14 AM AST 6:12 PM AST
Civil Twilight 5:53 AM AST 6:33 PM AST
Nautical Twilight 5:27 AM AST 6:59 PM AST
Astronomical Twilight 5:02 AM AST 7:24 PM AST
Moon 1:31 PM AST 12:14 AM AST
Length of Visible Light 12h 40m
Length of Day
11h 57m
Tomorrow will be 1m 0s shorter.
First Quarter, 59% of the Moon is Illuminated
Today
First Quarter
Oct 8
Full
Oct 15
Last Quarter
Oct 23
New
Oct 30
First Quarter

Community

WunderPhotos

Upload Photos

1,758,250 photos uploaded!

WunderBlogs® & News

By Dr. Jeff Masters
Director of Meteorology, Weather Underground
By Kari Strenfel
Meteorologist, Weather Underground
By Christopher C. Burt
Weather Historian, Weather Underground
October 2, 2014
October 2, 2014
October 2, 2014

Nearby

Snow Depth

Station Depth Elevation
No new snow has been reported.

Earthquake Activity

City Distance Mag. Time & Date
No recent earthquake activity has been reported nearby.
Minimum magnitude displayed is 2.5.

Coastal Water Temperatures

Place Temperature
Magueyes Islands, PR 84.9 °F
Yabucoa Harbor, PR 84.0 °F

Nearby Weather Stations